sensor_id;sensor_type;location;lat;lon;timestamp;P1;durP1;ratioP1;P2;durP2;ratioP2
44197;SDS011;30157;55.512;37.764;2024-02-23T00:00:53;44.13;;;19.10;;
44197;SDS011;30157;55.512;37.764;2024-02-23T00:03:19;34.10;;;14.00;;
44197;SDS011;30157;55.512;37.764;2024-02-23T00:05:45;45.67;;;20.67;;
44197;SDS011;30157;55.512;37.764;2024-02-23T00:08:11;51.88;;;21.73;;
44197;SDS011;30157;55.512;37.764;2024-02-23T00:10:36;39.90;;;18.15;;
44197;SDS011;30157;55.512;37.764;2024-02-23T00:13:02;47.67;;;21.10;;
44197;SDS011;30157;55.512;37.764;2024-02-23T00:15:28;42.22;;;19.55;;
44197;SDS011;30157;55.512;37.764;2024-02-23T00:17:54;50.22;;;20.58;;
44197;SDS011;30157;55.512;37.764;2024-02-23T00:20:20;41.45;;;17.30;;
44197;SDS011;30157;55.512;37.764;2024-02-23T00:22:45;43.80;;;18.90;;
44197;SDS011;30157;55.512;37.764;2024-02-23T00:25:11;48.03;;;19.25;;
44197;SDS011;30157;55.512;37.764;2024-02-23T00:27:37;48.47;;;20.65;;
44197;SDS011;30157;55.512;37.764;2024-02-23T00:30:05;43.20;;;18.98;;
44197;SDS011;30157;55.512;37.764;2024-02-23T00:32:31;46.97;;;19.77;;
44197;SDS011;30157;55.512;37.764;2024-02-23T00:34:57;50.13;;;22.10;;
44197;SDS011;30157;55.512;37.764;2024-02-23T00:37:23;38.33;;;17.13;;
44197;SDS011;30157;55.512;37.764;2024-02-23T00:39:49;37.65;;;16.75;;
44197;SDS011;30157;55.512;37.764;2024-02-23T00:42:15;35.65;;;16.23;;
44197;SDS011;30157;55.512;37.764;2024-02-23T00:44:40;32.78;;;14.70;;
44197;SDS011;30157;55.512;37.764;2024-02-23T00:47:06;43.38;;;18.98;;
44197;SDS011;30157;55.512;37.764;2024-02-23T00:49:32;47.08;;;21.08;;
44197;SDS011;30157;55.512;37.764;2024-02-23T00:51:58;41.38;;;18.95;;
44197;SDS011;30157;55.512;37.764;2024-02-23T00:54:26;45.35;;;21.40;;
44197;SDS011;30157;55.512;37.764;2024-02-23T00:56:52;52.53;;;21.92;;
44197;SDS011;30157;55.512;37.764;2024-02-23T00:59:17;38.20;;;13.93;;
44197;SDS011;30157;55.512;37.764;2024-02-23T01:01:43;37.80;;;15.70;;
44197;SDS011;30157;55.512;37.764;2024-02-23T01:04:09;46.05;;;20.30;;
44197;SDS011;30157;55.512;37.764;2024-02-23T01:06:35;38.30;;;16.20;;
44197;SDS011;30157;55.512;37.764;2024-02-23T01:09:00;40.58;;;18.33;;
44197;SDS011;30157;55.512;37.764;2024-02-23T01:11:27;40.10;;;18.35;;
44197;SDS011;30157;55.512;37.764;2024-02-23T01:13:52;49.45;;;20.05;;
44197;SDS011;30157;55.512;37.764;2024-02-23T01:16:18;43.53;;;19.63;;
44197;SDS011;30157;55.512;37.764;2024-02-23T01:18:44;44.50;;;18.10;;
44197;SDS011;30157;55.512;37.764;2024-02-23T01:21:09;45.80;;;19.58;;
44197;SDS011;30157;55.512;37.764;2024-02-23T01:23:35;43.05;;;18.17;;
44197;SDS011;30157;55.512;37.764;2024-02-23T01:26:01;37.78;;;15.95;;
44197;SDS011;30157;55.512;37.764;2024-02-23T01:28:27;41.42;;;17.90;;
44197;SDS011;30157;55.512;37.764;2024-02-23T01:30:53;34.70;;;14.68;;
44197;SDS011;30157;55.512;37.764;2024-02-23T01:33:19;39.88;;;17.20;;
44197;SDS011;30157;55.512;37.764;2024-02-23T01:35:45;41.67;;;18.30;;
44197;SDS011;30157;55.512;37.764;2024-02-23T01:38:10;39.63;;;17.83;;
44197;SDS011;30157;55.512;37.764;2024-02-23T01:40:36;36.75;;;17.15;;
44197;SDS011;30157;55.512;37.764;2024-02-23T01:43:05;43.47;;;19.85;;
44197;SDS011;30157;55.512;37.764;2024-02-23T01:45:31;44.53;;;19.60;;
44197;SDS011;30157;55.512;37.764;2024-02-23T01:47:58;43.72;;;18.05;;
44197;SDS011;30157;55.512;37.764;2024-02-23T01:50:25;37.38;;;16.60;;
44197;SDS011;30157;55.512;37.764;2024-02-23T01:52:52;46.20;;;20.77;;
44197;SDS011;30157;55.512;37.764;2024-02-23T01:55:20;45.78;;;18.50;;
44197;SDS011;30157;55.512;37.764;2024-02-23T01:57:46;43.72;;;18.98;;
44197;SDS011;30157;55.512;37.764;2024-02-23T02:00:15;35.20;;;15.55;;
44197;SDS011;30157;55.512;37.764;2024-02-23T02:02:48;28.13;;;12.57;;
44197;SDS011;30157;55.512;37.764;2024-02-23T02:05:15;37.83;;;17.27;;
44197;SDS011;30157;55.512;37.764;2024-02-23T02:07:41;47.90;;;21.27;;
44197;SDS011;30157;55.512;37.764;2024-02-23T02:10:08;36.10;;;16.42;;
44197;SDS011;30157;55.512;37.764;2024-02-23T02:12:34;40.58;;;17.67;;
44197;SDS011;30157;55.512;37.764;2024-02-23T02:15:01;36.78;;;16.80;;
44197;SDS011;30157;55.512;37.764;2024-02-23T02:17:31;31.63;;;11.52;;
44197;SDS011;30157;55.512;37.764;2024-02-23T02:19:58;31.38;;;13.45;;
44197;SDS011;30157;55.512;37.764;2024-02-23T02:22:33;40.55;;;17.50;;
44197;SDS011;30157;55.512;37.764;2024-02-23T02:25:01;33.47;;;15.65;;
44197;SDS011;30157;55.512;37.764;2024-02-23T02:27:37;36.42;;;15.32;;
44197;SDS011;30157;55.512;37.764;2024-02-23T02:30:03;40.70;;;17.27;;
44197;SDS011;30157;55.512;37.764;2024-02-23T02:32:30;39.20;;;18.08;;
44197;SDS011;30157;55.512;37.764;2024-02-23T02:34:55;41.47;;;18.65;;
44197;SDS011;30157;55.512;37.764;2024-02-23T02:37:21;35.63;;;13.88;;
44197;SDS011;30157;55.512;37.764;2024-02-23T02:39:46;36.47;;;16.10;;
44197;SDS011;30157;55.512;37.764;2024-02-23T02:42:12;39.47;;;17.90;;
44197;SDS011;30157;55.512;37.764;2024-02-23T02:44:38;40.83;;;17.48;;
44197;SDS011;30157;55.512;37.764;2024-02-23T02:47:04;40.90;;;17.83;;
44197;SDS011;30157;55.512;37.764;2024-02-23T02:49:29;48.92;;;19.92;;
44197;SDS011;30157;55.512;37.764;2024-02-23T02:51:55;37.17;;;13.57;;
44197;SDS011;30157;55.512;37.764;2024-02-23T02:54:21;42.13;;;17.15;;
44197;SDS011;30157;55.512;37.764;2024-02-23T02:56:49;33.92;;;13.98;;
44197;SDS011;30157;55.512;37.764;2024-02-23T02:59:16;42.90;;;18.52;;
44197;SDS011;30157;55.512;37.764;2024-02-23T03:01:43;41.55;;;16.40;;
44197;SDS011;30157;55.512;37.764;2024-02-23T03:04:09;43.20;;;17.63;;
44197;SDS011;30157;55.512;37.764;2024-02-23T03:06:34;44.50;;;18.98;;
44197;SDS011;30157;55.512;37.764;2024-02-23T03:09:00;39.22;;;16.70;;
44197;SDS011;30157;55.512;37.764;2024-02-23T03:11:26;41.10;;;17.05;;
44197;SDS011;30157;55.512;37.764;2024-02-23T03:13:52;41.60;;;18.55;;
44197;SDS011;30157;55.512;37.764;2024-02-23T03:16:18;44.00;;;17.58;;
44197;SDS011;30157;55.512;37.764;2024-02-23T03:18:44;42.03;;;16.52;;
44197;SDS011;30157;55.512;37.764;2024-02-23T03:21:10;39.88;;;17.17;;
44197;SDS011;30157;55.512;37.764;2024-02-23T03:23:35;46.47;;;19.50;;
44197;SDS011;30157;55.512;37.764;2024-02-23T03:26:02;46.78;;;19.70;;
44197;SDS011;30157;55.512;37.764;2024-02-23T03:28:28;37.22;;;15.93;;
44197;SDS011;30157;55.512;37.764;2024-02-23T03:30:53;47.15;;;19.20;;
44197;SDS011;30157;55.512;37.764;2024-02-23T03:33:19;41.70;;;16.77;;
44197;SDS011;30157;55.512;37.764;2024-02-23T03:35:45;48.30;;;19.52;;
44197;SDS011;30157;55.512;37.764;2024-02-23T03:38:11;43.95;;;18.40;;
44197;SDS011;30157;55.512;37.764;2024-02-23T03:40:36;39.03;;;15.15;;
44197;SDS011;30157;55.512;37.764;2024-02-23T03:43:03;44.30;;;18.77;;
44197;SDS011;30157;55.512;37.764;2024-02-23T03:45:30;43.63;;;17.65;;
44197;SDS011;30157;55.512;37.764;2024-02-23T03:47:55;42.05;;;17.52;;
44197;SDS011;30157;55.512;37.764;2024-02-23T03:50:21;45.72;;;19.02;;
44197;SDS011;30157;55.512;37.764;2024-02-23T03:52:47;37.00;;;13.63;;
44197;SDS011;30157;55.512;37.764;2024-02-23T03:55:13;46.15;;;18.58;;
44197;SDS011;30157;55.512;37.764;2024-02-23T03:57:38;34.05;;;13.20;;
44197;SDS011;30157;55.512;37.764;2024-02-23T04:00:04;48.88;;;19.75;;
44197;SDS011;30157;55.512;37.764;2024-02-23T04:02:38;49.63;;;20.30;;
44197;SDS011;30157;55.512;37.764;2024-02-23T04:05:04;47.70;;;15.98;;
44197;SDS011;30157;55.512;37.764;2024-02-23T04:07:30;56.30;;;21.13;;
44197;SDS011;30157;55.512;37.764;2024-02-23T04:09:56;48.33;;;18.33;;
44197;SDS011;30157;55.512;37.764;2024-02-23T04:12:22;43.13;;;15.48;;
44197;SDS011;30157;55.512;37.764;2024-02-23T04:14:48;49.92;;;19.63;;
44197;SDS011;30157;55.512;37.764;2024-02-23T04:17:14;52.13;;;20.85;;
44197;SDS011;30157;55.512;37.764;2024-02-23T04:19:41;49.78;;;19.45;;
44197;SDS011;30157;55.512;37.764;2024-02-23T04:22:07;52.03;;;18.98;;
44197;SDS011;30157;55.512;37.764;2024-02-23T04:24:38;41.83;;;17.60;;
44197;SDS011;30157;55.512;37.764;2024-02-23T04:27:05;39.00;;;13.77;;
44197;SDS011;30157;55.512;37.764;2024-02-23T04:29:31;43.00;;;18.15;;
44197;SDS011;30157;55.512;37.764;2024-02-23T04:31:58;44.38;;;18.08;;
44197;SDS011;30157;55.512;37.764;2024-02-23T04:34:24;42.95;;;17.75;;
44197;SDS011;30157;55.512;37.764;2024-02-23T04:36:50;52.28;;;20.35;;
44197;SDS011;30157;55.512;37.764;2024-02-23T04:39:16;51.25;;;19.67;;
44197;SDS011;30157;55.512;37.764;2024-02-23T04:41:41;49.60;;;18.95;;
44197;SDS011;30157;55.512;37.764;2024-02-23T04:44:07;47.25;;;18.95;;
44197;SDS011;30157;55.512;37.764;2024-02-23T04:46:34;43.05;;;17.38;;
44197;SDS011;30157;55.512;37.764;2024-02-23T04:49:00;47.78;;;18.50;;
44197;SDS011;30157;55.512;37.764;2024-02-23T04:51:26;47.67;;;19.67;;
44197;SDS011;30157;55.512;37.764;2024-02-23T04:53:52;51.25;;;21.08;;
44197;SDS011;30157;55.512;37.764;2024-02-23T04:56:18;48.17;;;19.05;;
44197;SDS011;30157;55.512;37.764;2024-02-23T04:58:44;42.50;;;18.17;;
44197;SDS011;30157;55.512;37.764;2024-02-23T05:01:10;38.17;;;16.55;;
44197;SDS011;30157;55.512;37.764;2024-02-23T05:03:36;46.22;;;18.60;;
44197;SDS011;30157;55.512;37.764;2024-02-23T05:06:03;38.67;;;14.63;;
44197;SDS011;30157;55.512;37.764;2024-02-23T05:08:29;45.38;;;18.75;;
44197;SDS011;30157;55.512;37.764;2024-02-23T05:10:58;50.40;;;21.13;;
44197;SDS011;30157;55.512;37.764;2024-02-23T05:13:24;42.97;;;17.88;;
44197;SDS011;30157;55.512;37.764;2024-02-23T05:15:51;45.10;;;19.23;;
44197;SDS011;30157;55.512;37.764;2024-02-23T05:18:20;42.90;;;17.90;;
44197;SDS011;30157;55.512;37.764;2024-02-23T05:20:45;48.75;;;20.58;;
44197;SDS011;30157;55.512;37.764;2024-02-23T05:23:11;46.88;;;20.33;;
44197;SDS011;30157;55.512;37.764;2024-02-23T05:25:37;42.85;;;17.10;;
44197;SDS011;30157;55.512;37.764;2024-02-23T05:28:03;48.03;;;19.90;;
44197;SDS011;30157;55.512;37.764;2024-02-23T05:30:29;44.22;;;18.70;;
44197;SDS011;30157;55.512;37.764;2024-02-23T05:32:57;52.45;;;22.65;;
44197;SDS011;30157;55.512;37.764;2024-02-23T05:35:26;51.50;;;23.35;;
44197;SDS011;30157;55.512;37.764;2024-02-23T05:37:51;43.95;;;18.38;;
44197;SDS011;30157;55.512;37.764;2024-02-23T05:40:17;48.20;;;20.20;;
44197;SDS011;30157;55.512;37.764;2024-02-23T05:42:43;44.40;;;18.88;;
44197;SDS011;30157;55.512;37.764;2024-02-23T05:45:09;51.42;;;21.13;;
44197;SDS011;30157;55.512;37.764;2024-02-23T05:47:36;50.78;;;18.77;;
44197;SDS011;30157;55.512;37.764;2024-02-23T05:50:03;60.38;;;23.98;;
44197;SDS011;30157;55.512;37.764;2024-02-23T05:52:32;51.55;;;21.27;;
44197;SDS011;30157;55.512;37.764;2024-02-23T05:54:58;50.75;;;20.48;;
44197;SDS011;30157;55.512;37.764;2024-02-23T05:57:26;44.60;;;19.73;;
44197;SDS011;30157;55.512;37.764;2024-02-23T05:59:53;50.47;;;21.23;;
44197;SDS011;30157;55.512;37.764;2024-02-23T06:02:19;56.45;;;22.38;;
44197;SDS011;30157;55.512;37.764;2024-02-23T06:04:44;42.83;;;19.02;;
44197;SDS011;30157;55.512;37.764;2024-02-23T06:07:10;39.58;;;15.60;;
44197;SDS011;30157;55.512;37.764;2024-02-23T06:09:36;46.45;;;20.60;;
44197;SDS011;30157;55.512;37.764;2024-02-23T06:12:02;47.72;;;18.90;;
44197;SDS011;30157;55.512;37.764;2024-02-23T06:14:28;51.83;;;21.13;;
44197;SDS011;30157;55.512;37.764;2024-02-23T06:16:53;39.50;;;16.92;;
44197;SDS011;30157;55.512;37.764;2024-02-23T06:19:19;40.75;;;18.17;;
44197;SDS011;30157;55.512;37.764;2024-02-23T06:21:48;45.80;;;20.02;;
44197;SDS011;30157;55.512;37.764;2024-02-23T06:24:15;50.47;;;18.90;;
44197;SDS011;30157;55.512;37.764;2024-02-23T06:26:41;50.90;;;22.30;;
44197;SDS011;30157;55.512;37.764;2024-02-23T06:29:06;46.70;;;19.15;;
44197;SDS011;30157;55.512;37.764;2024-02-23T06:31:39;41.90;;;16.52;;
44197;SDS011;30157;55.512;37.764;2024-02-23T06:34:05;41.00;;;17.73;;
44197;SDS011;30157;55.512;37.764;2024-02-23T06:36:31;43.75;;;20.23;;
44197;SDS011;30157;55.512;37.764;2024-02-23T06:38:56;41.70;;;17.52;;
44197;SDS011;30157;55.512;37.764;2024-02-23T06:41:22;46.90;;;20.02;;
44197;SDS011;30157;55.512;37.764;2024-02-23T06:43:48;43.65;;;19.90;;
44197;SDS011;30157;55.512;37.764;2024-02-23T06:46:13;36.05;;;16.33;;
44197;SDS011;30157;55.512;37.764;2024-02-23T06:48:39;48.80;;;21.08;;
44197;SDS011;30157;55.512;37.764;2024-02-23T06:51:05;38.58;;;18.45;;
44197;SDS011;30157;55.512;37.764;2024-02-23T06:53:35;40.45;;;18.17;;
44197;SDS011;30157;55.512;37.764;2024-02-23T06:56:01;37.75;;;17.05;;
44197;SDS011;30157;55.512;37.764;2024-02-23T06:58:27;34.35;;;15.90;;
44197;SDS011;30157;55.512;37.764;2024-02-23T07:00:53;39.72;;;16.33;;
44197;SDS011;30157;55.512;37.764;2024-02-23T07:03:19;42.60;;;19.75;;
44197;SDS011;30157;55.512;37.764;2024-02-23T07:05:45;38.85;;;17.70;;
44197;SDS011;30157;55.512;37.764;2024-02-23T07:08:11;33.53;;;14.45;;
44197;SDS011;30157;55.512;37.764;2024-02-23T07:10:37;35.45;;;13.73;;
44197;SDS011;30157;55.512;37.764;2024-02-23T07:13:03;37.72;;;15.65;;
44197;SDS011;30157;55.512;37.764;2024-02-23T07:15:28;39.38;;;17.70;;
44197;SDS011;30157;55.512;37.764;2024-02-23T07:17:55;40.03;;;16.92;;
44197;SDS011;30157;55.512;37.764;2024-02-23T07:20:21;37.70;;;17.05;;
44197;SDS011;30157;55.512;37.764;2024-02-23T07:22:47;36.47;;;15.38;;
44197;SDS011;30157;55.512;37.764;2024-02-23T07:25:20;34.15;;;15.48;;
44197;SDS011;30157;55.512;37.764;2024-02-23T07:27:46;34.50;;;16.23;;
44197;SDS011;30157;55.512;37.764;2024-02-23T07:30:14;39.78;;;17.15;;
44197;SDS011;30157;55.512;37.764;2024-02-23T07:32:42;39.70;;;17.40;;
44197;SDS011;30157;55.512;37.764;2024-02-23T07:35:08;37.95;;;16.30;;
44197;SDS011;30157;55.512;37.764;2024-02-23T07:37:34;36.42;;;15.27;;
44197;SDS011;30157;55.512;37.764;2024-02-23T07:40:00;32.63;;;14.63;;
44197;SDS011;30157;55.512;37.764;2024-02-23T07:42:25;40.30;;;18.55;;
44197;SDS011;30157;55.512;37.764;2024-02-23T07:44:52;37.17;;;17.40;;
44197;SDS011;30157;55.512;37.764;2024-02-23T07:47:18;32.40;;;15.63;;
44197;SDS011;30157;55.512;37.764;2024-02-23T07:49:44;32.67;;;14.80;;
44197;SDS011;30157;55.512;37.764;2024-02-23T07:52:10;33.08;;;15.13;;
44197;SDS011;30157;55.512;37.764;2024-02-23T07:54:35;33.20;;;16.38;;
44197;SDS011;30157;55.512;37.764;2024-02-23T07:57:02;31.98;;;16.58;;
44197;SDS011;30157;55.512;37.764;2024-02-23T07:59:29;37.63;;;16.25;;
44197;SDS011;30157;55.512;37.764;2024-02-23T08:01:55;25.98;;;11.88;;
44197;SDS011;30157;55.512;37.764;2024-02-23T08:04:21;26.20;;;10.60;;
44197;SDS011;30157;55.512;37.764;2024-02-23T08:06:48;35.17;;;15.48;;
44197;SDS011;30157;55.512;37.764;2024-02-23T08:09:14;32.22;;;14.43;;
44197;SDS011;30157;55.512;37.764;2024-02-23T08:11:40;27.42;;;12.73;;
44197;SDS011;30157;55.512;37.764;2024-02-23T08:14:06;32.13;;;15.30;;
44197;SDS011;30157;55.512;37.764;2024-02-23T08:16:31;32.20;;;15.18;;
44197;SDS011;30157;55.512;37.764;2024-02-23T08:18:58;29.75;;;14.13;;
44197;SDS011;30157;55.512;37.764;2024-02-23T08:21:24;31.88;;;15.35;;
44197;SDS011;30157;55.512;37.764;2024-02-23T08:23:51;29.90;;;14.68;;
44197;SDS011;30157;55.512;37.764;2024-02-23T08:26:17;32.80;;;16.98;;
44197;SDS011;30157;55.512;37.764;2024-02-23T08:28:43;30.27;;;14.88;;
44197;SDS011;30157;55.512;37.764;2024-02-23T08:31:09;32.72;;;13.93;;
44197;SDS011;30157;55.512;37.764;2024-02-23T08:33:35;27.83;;;12.40;;
44197;SDS011;30157;55.512;37.764;2024-02-23T08:36:01;32.70;;;14.93;;
44197;SDS011;30157;55.512;37.764;2024-02-23T08:38:27;31.35;;;15.10;;
44197;SDS011;30157;55.512;37.764;2024-02-23T08:40:52;27.88;;;13.90;;
44197;SDS011;30157;55.512;37.764;2024-02-23T08:43:18;30.67;;;13.77;;
44197;SDS011;30157;55.512;37.764;2024-02-23T08:45:46;29.02;;;14.73;;
44197;SDS011;30157;55.512;37.764;2024-02-23T08:48:12;31.65;;;15.80;;
44197;SDS011;30157;55.512;37.764;2024-02-23T08:50:40;29.75;;;13.95;;
44197;SDS011;30157;55.512;37.764;2024-02-23T08:53:06;33.50;;;15.80;;
44197;SDS011;30157;55.512;37.764;2024-02-23T08:55:32;32.95;;;15.60;;
44197;SDS011;30157;55.512;37.764;2024-02-23T08:57:58;24.05;;;11.68;;
44197;SDS011;30157;55.512;37.764;2024-02-23T09:00:25;30.48;;;13.80;;
44197;SDS011;30157;55.512;37.764;2024-02-23T09:02:51;30.20;;;14.68;;
44197;SDS011;30157;55.512;37.764;2024-02-23T09:05:17;26.60;;;10.95;;
44197;SDS011;30157;55.512;37.764;2024-02-23T09:07:43;31.45;;;14.27;;
44197;SDS011;30157;55.512;37.764;2024-02-23T09:10:10;22.83;;;11.18;;
44197;SDS011;30157;55.512;37.764;2024-02-23T09:12:37;28.42;;;13.93;;
44197;SDS011;30157;55.512;37.764;2024-02-23T09:15:04;35.72;;;15.77;;
44197;SDS011;30157;55.512;37.764;2024-02-23T09:17:31;30.83;;;14.98;;
44197;SDS011;30157;55.512;37.764;2024-02-23T09:19:57;30.00;;;13.73;;
44197;SDS011;30157;55.512;37.764;2024-02-23T09:22:23;27.05;;;13.82;;
44197;SDS011;30157;55.512;37.764;2024-02-23T09:24:50;34.72;;;17.30;;
44197;SDS011;30157;55.512;37.764;2024-02-23T09:27:16;36.17;;;16.67;;
44197;SDS011;30157;55.512;37.764;2024-02-23T09:29:42;31.85;;;14.95;;
44197;SDS011;30157;55.512;37.764;2024-02-23T09:32:08;30.33;;;14.93;;
44197;SDS011;30157;55.512;37.764;2024-02-23T09:34:34;30.67;;;14.18;;
44197;SDS011;30157;55.512;37.764;2024-02-23T09:37:00;31.88;;;14.38;;
44197;SDS011;30157;55.512;37.764;2024-02-23T09:39:26;33.85;;;15.48;;
44197;SDS011;30157;55.512;37.764;2024-02-23T09:41:56;32.33;;;14.40;;
44197;SDS011;30157;55.512;37.764;2024-02-23T09:44:31;33.83;;;15.23;;
44197;SDS011;30157;55.512;37.764;2024-02-23T09:47:04;33.65;;;16.33;;
44197;SDS011;30157;55.512;37.764;2024-02-23T09:49:37;27.77;;;11.95;;
44197;SDS011;30157;55.512;37.764;2024-02-23T09:52:04;32.10;;;14.90;;
44197;SDS011;30157;55.512;37.764;2024-02-23T09:54:33;31.63;;;13.35;;
44197;SDS011;30157;55.512;37.764;2024-02-23T09:57:00;33.38;;;15.95;;
44197;SDS011;30157;55.512;37.764;2024-02-23T09:59:32;35.03;;;15.43;;
44197;SDS011;30157;55.512;37.764;2024-02-23T10:01:59;29.27;;;14.20;;
44197;SDS011;30157;55.512;37.764;2024-02-23T10:04:26;30.83;;;15.30;;
44197;SDS011;30157;55.512;37.764;2024-02-23T10:06:55;32.63;;;14.85;;
44197;SDS011;30157;55.512;37.764;2024-02-23T10:09:21;26.50;;;12.77;;
44197;SDS011;30157;55.512;37.764;2024-02-23T10:11:53;33.03;;;15.68;;
44197;SDS011;30157;55.512;37.764;2024-02-23T10:14:20;35.97;;;16.75;;
44197;SDS011;30157;55.512;37.764;2024-02-23T10:16:47;32.47;;;15.38;;
44197;SDS011;30157;55.512;37.764;2024-02-23T10:19:14;30.25;;;13.60;;
44197;SDS011;30157;55.512;37.764;2024-02-23T10:21:39;24.55;;;10.57;;
44197;SDS011;30157;55.512;37.764;2024-02-23T10:24:09;32.05;;;13.82;;
44197;SDS011;30157;55.512;37.764;2024-02-23T10:26:38;33.13;;;15.65;;
44197;SDS011;30157;55.512;37.764;2024-02-23T10:29:03;30.90;;;13.50;;
44197;SDS011;30157;55.512;37.764;2024-02-23T10:31:33;33.63;;;15.98;;
44197;SDS011;30157;55.512;37.764;2024-02-23T10:34:07;35.25;;;16.45;;
44197;SDS011;30157;55.512;37.764;2024-02-23T10:36:42;33.50;;;14.82;;
44197;SDS011;30157;55.512;37.764;2024-02-23T10:39:08;35.88;;;15.85;;
44197;SDS011;30157;55.512;37.764;2024-02-23T10:41:35;35.45;;;15.75;;
44197;SDS011;30157;55.512;37.764;2024-02-23T10:44:04;32.58;;;14.80;;
44197;SDS011;30157;55.512;37.764;2024-02-23T10:46:32;31.70;;;14.02;;
44197;SDS011;30157;55.512;37.764;2024-02-23T10:48:58;31.63;;;15.13;;
44197;SDS011;30157;55.512;37.764;2024-02-23T10:51:24;32.13;;;15.10;;
44197;SDS011;30157;55.512;37.764;2024-02-23T10:53:50;32.30;;;13.23;;
44197;SDS011;30157;55.512;37.764;2024-02-23T10:56:18;33.55;;;15.25;;
44197;SDS011;30157;55.512;37.764;2024-02-23T10:58:45;33.55;;;15.35;;
44197;SDS011;30157;55.512;37.764;2024-02-23T11:01:11;41.30;;;16.77;;
44197;SDS011;30157;55.512;37.764;2024-02-23T11:03:41;40.97;;;17.00;;
44197;SDS011;30157;55.512;37.764;2024-02-23T11:06:12;35.67;;;15.23;;
44197;SDS011;30157;55.512;37.764;2024-02-23T11:08:38;35.28;;;15.95;;
44197;SDS011;30157;55.512;37.764;2024-02-23T11:11:08;36.60;;;15.27;;
44197;SDS011;30157;55.512;37.764;2024-02-23T11:13:34;38.78;;;16.83;;
44197;SDS011;30157;55.512;37.764;2024-02-23T11:16:02;38.33;;;14.38;;
44197;SDS011;30157;55.512;37.764;2024-02-23T11:18:31;34.95;;;15.48;;
44197;SDS011;30157;55.512;37.764;2024-02-23T11:21:00;39.10;;;16.35;;
44197;SDS011;30157;55.512;37.764;2024-02-23T11:26:06;31.70;;;14.98;;
44197;SDS011;30157;55.512;37.764;2024-02-23T11:28:50;39.55;;;17.23;;
44197;SDS011;30157;55.512;37.764;2024-02-23T11:31:23;38.20;;;16.75;;
44197;SDS011;30157;55.512;37.764;2024-02-23T11:33:51;34.55;;;15.18;;
44197;SDS011;30157;55.512;37.764;2024-02-23T11:39:16;33.42;;;13.07;;
44197;SDS011;30157;55.512;37.764;2024-02-23T11:41:43;43.40;;;18.63;;
44197;SDS011;30157;55.512;37.764;2024-02-23T11:44:10;45.95;;;19.17;;
44197;SDS011;30157;55.512;37.764;2024-02-23T11:46:39;39.22;;;15.75;;
44197;SDS011;30157;55.512;37.764;2024-02-23T11:49:07;39.85;;;15.25;;
44197;SDS011;30157;55.512;37.764;2024-02-23T11:51:33;42.17;;;15.93;;
44197;SDS011;30157;55.512;37.764;2024-02-23T11:53:59;50.17;;;19.90;;
44197;SDS011;30157;55.512;37.764;2024-02-23T11:56:26;42.47;;;16.75;;
44197;SDS011;30157;55.512;37.764;2024-02-23T11:58:54;46.17;;;17.25;;
44197;SDS011;30157;55.512;37.764;2024-02-23T12:01:21;43.10;;;18.08;;
44197;SDS011;30157;55.512;37.764;2024-02-23T12:03:47;45.80;;;18.00;;
44197;SDS011;30157;55.512;37.764;2024-02-23T12:06:17;42.40;;;16.58;;
44197;SDS011;30157;55.512;37.764;2024-02-23T12:08:43;57.72;;;21.80;;
44197;SDS011;30157;55.512;37.764;2024-02-23T12:11:11;49.28;;;20.05;;
44197;SDS011;30157;55.512;37.764;2024-02-23T12:13:39;45.15;;;17.17;;
44197;SDS011;30157;55.512;37.764;2024-02-23T12:16:06;44.05;;;17.42;;
44197;SDS011;30157;55.512;37.764;2024-02-23T12:18:33;51.50;;;19.92;;
44197;SDS011;30157;55.512;37.764;2024-02-23T12:21:00;47.05;;;18.52;;
44197;SDS011;30157;55.512;37.764;2024-02-23T12:23:27;48.92;;;20.42;;
44197;SDS011;30157;55.512;37.764;2024-02-23T12:26:02;46.97;;;17.25;;
44197;SDS011;30157;55.512;37.764;2024-02-23T12:28:28;52.75;;;21.27;;
44197;SDS011;30157;55.512;37.764;2024-02-23T12:31:01;59.72;;;22.42;;
44197;SDS011;30157;55.512;37.764;2024-02-23T12:33:28;51.38;;;18.38;;
44197;SDS011;30157;55.512;37.764;2024-02-23T12:35:56;57.42;;;20.30;;
44197;SDS011;30157;55.512;37.764;2024-02-23T12:38:24;55.30;;;21.50;;
44197;SDS011;30157;55.512;37.764;2024-02-23T12:40:50;57.38;;;22.83;;
44197;SDS011;30157;55.512;37.764;2024-02-23T12:43:17;50.80;;;20.13;;
44197;SDS011;30157;55.512;37.764;2024-02-23T12:45:43;57.17;;;22.65;;
44197;SDS011;30157;55.512;37.764;2024-02-23T12:48:10;56.15;;;21.10;;
44197;SDS011;30157;55.512;37.764;2024-02-23T12:50:36;53.50;;;20.83;;
44197;SDS011;30157;55.512;37.764;2024-02-23T12:53:02;45.13;;;16.75;;
44197;SDS011;30157;55.512;37.764;2024-02-23T12:55:29;67.20;;;22.58;;
44197;SDS011;30157;55.512;37.764;2024-02-23T12:57:55;54.95;;;20.05;;
44197;SDS011;30157;55.512;37.764;2024-02-23T13:00:21;51.95;;;19.42;;
44197;SDS011;30157;55.512;37.764;2024-02-23T13:02:46;58.20;;;21.70;;
44197;SDS011;30157;55.512;37.764;2024-02-23T13:05:12;58.05;;;22.83;;
44197;SDS011;30157;55.512;37.764;2024-02-23T13:07:38;59.58;;;23.15;;
44197;SDS011;30157;55.512;37.764;2024-02-23T13:10:06;58.03;;;20.65;;
44197;SDS011;30157;55.512;37.764;2024-02-23T13:12:32;56.53;;;23.40;;
44197;SDS011;30157;55.512;37.764;2024-02-23T13:14:58;57.13;;;20.98;;
44197;SDS011;30157;55.512;37.764;2024-02-23T13:17:24;63.97;;;22.67;;
44197;SDS011;30157;55.512;37.764;2024-02-23T13:19:51;62.65;;;22.33;;
44197;SDS011;30157;55.512;37.764;2024-02-23T13:22:17;64.43;;;24.95;;
44197;SDS011;30157;55.512;37.764;2024-02-23T13:24:44;59.28;;;22.98;;
44197;SDS011;30157;55.512;37.764;2024-02-23T13:27:12;61.72;;;23.48;;
44197;SDS011;30157;55.512;37.764;2024-02-23T13:29:46;59.58;;;21.48;;
44197;SDS011;30157;55.512;37.764;2024-02-23T13:32:12;57.38;;;20.75;;
44197;SDS011;30157;55.512;37.764;2024-02-23T13:34:38;63.67;;;23.33;;
44197;SDS011;30157;55.512;37.764;2024-02-23T13:37:07;66.07;;;24.92;;
44197;SDS011;30157;55.512;37.764;2024-02-23T13:39:32;56.45;;;22.60;;
44197;SDS011;30157;55.512;37.764;2024-02-23T13:41:58;60.45;;;21.08;;
44197;SDS011;30157;55.512;37.764;2024-02-23T13:44:25;69.13;;;26.15;;
44197;SDS011;30157;55.512;37.764;2024-02-23T13:46:50;59.33;;;22.38;;
44197;SDS011;30157;55.512;37.764;2024-02-23T13:49:16;58.20;;;21.08;;
44197;SDS011;30157;55.512;37.764;2024-02-23T13:51:43;73.47;;;27.58;;
44197;SDS011;30157;55.512;37.764;2024-02-23T13:54:09;63.97;;;23.83;;
44197;SDS011;30157;55.512;37.764;2024-02-23T13:56:34;64.05;;;25.83;;
44197;SDS011;30157;55.512;37.764;2024-02-23T13:59:01;65.00;;;22.95;;
44197;SDS011;30157;55.512;37.764;2024-02-23T14:01:27;63.55;;;24.10;;
44197;SDS011;30157;55.512;37.764;2024-02-23T14:03:52;51.88;;;17.80;;
44197;SDS011;30157;55.512;37.764;2024-02-23T14:06:18;57.50;;;20.67;;
44197;SDS011;30157;55.512;37.764;2024-02-23T14:08:44;68.22;;;26.80;;
44197;SDS011;30157;55.512;37.764;2024-02-23T14:11:15;69.13;;;26.88;;